createdAt,value
2022-12-15T00:02:27.998Z,18.20
2022-12-15T00:05:14.609Z,20.00
2022-12-15T00:08:01.329Z,19.40
2022-12-15T00:10:47.830Z,21.50
2022-12-15T00:13:34.954Z,23.60
2022-12-15T00:16:21.543Z,26.10
2022-12-15T00:19:07.782Z,26.50
2022-12-15T00:21:54.214Z,26.40
2022-12-15T00:24:40.654Z,25.40
2022-12-15T00:27:26.885Z,22.70
2022-12-15T00:30:13.243Z,22.30
2022-12-15T00:32:59.496Z,21.40
2022-12-15T00:35:45.989Z,22.10
2022-12-15T00:38:33.394Z,19.40
2022-12-15T00:41:01.889Z,18.20
2022-12-15T00:43:31.494Z,19.10
2022-12-15T00:46:15.468Z,18.70
2022-12-15T00:48:43.812Z,18.10
2022-12-15T00:51:12.759Z,17.90
2022-12-15T00:54:00.022Z,14.70
2022-12-15T00:56:46.684Z,19.10
2022-12-15T00:59:33.866Z,24.20
2022-12-15T01:02:21.835Z,21.40
2022-12-15T01:05:08.388Z,20.90
2022-12-15T01:07:54.491Z,18.80
2022-12-15T01:10:41.158Z,20.70
2022-12-15T01:13:32.342Z,20.20
2022-12-15T01:16:19.050Z,22.10
2022-12-15T01:19:05.434Z,20.70
2022-12-15T01:21:33.559Z,21.00
2022-12-15T01:24:01.621Z,19.70
2022-12-15T01:26:30.177Z,20.60
2022-12-15T01:28:58.267Z,19.70
2022-12-15T01:31:26.396Z,20.60
2022-12-15T01:33:54.799Z,22.10
2022-12-15T01:36:22.879Z,23.00
2022-12-15T01:38:54.351Z,22.10
2022-12-15T01:41:23.292Z,23.10
2022-12-15T01:43:51.456Z,22.40
2022-12-15T01:46:21.811Z,23.00
2022-12-15T01:48:57.293Z,22.20
2022-12-15T01:54:38.039Z,23.10
2022-12-15T01:57:13.931Z,22.30
2022-12-15T01:59:48.348Z,22.30
2022-12-15T02:02:17.927Z,20.80
2022-12-15T02:04:48.569Z,22.30
2022-12-15T02:07:17.611Z,21.60
2022-12-15T02:09:48.833Z,21.90
2022-12-15T02:12:28.167Z,21.30
2022-12-15T02:15:09.248Z,21.70
2022-12-15T02:17:45.512Z,20.80
2022-12-15T02:20:51.548Z,20.80
2022-12-15T02:23:47.917Z,19.70
2022-12-15T02:26:51.687Z,19.40
2022-12-15T02:29:47.466Z,21.30
2022-12-15T02:32:21.350Z,23.40
2022-12-15T02:34:55.672Z,23.60
2022-12-15T02:37:28.911Z,23.70
2022-12-15T02:39:57.474Z,23.00
2022-12-15T02:42:29.209Z,20.50
2022-12-15T02:45:00.819Z,20.60
2022-12-15T02:47:35.431Z,20.30
2022-12-15T02:50:24.873Z,21.10
2022-12-15T02:53:02.767Z,20.60
2022-12-15T02:55:41.581Z,21.00
2022-12-15T02:58:19.803Z,21.60
2022-12-15T03:00:54.410Z,21.20
2022-12-15T03:03:24.925Z,22.00
2022-12-15T03:05:54.688Z,23.10
2022-12-15T03:08:23.473Z,21.80
2022-12-15T03:10:54.564Z,21.60
2022-12-15T03:13:24.835Z,21.20
2022-12-15T03:15:53.939Z,21.60
2022-12-15T03:18:22.410Z,21.70
2022-12-15T03:20:51.815Z,22.30
2022-12-15T03:23:22.649Z,22.80
2022-12-15T03:25:51.069Z,26.60
2022-12-15T03:28:19.410Z,25.90
2022-12-15T03:30:50.225Z,31.00
2022-12-15T03:33:19.283Z,28.40
2022-12-15T03:35:47.732Z,26.80
2022-12-15T03:38:16.109Z,24.30
2022-12-15T03:40:44.639Z,22.80
2022-12-15T03:43:12.930Z,23.00
2022-12-15T03:45:41.421Z,22.20
2022-12-15T03:48:09.939Z,21.70
2022-12-15T03:50:38.688Z,20.70
2022-12-15T03:53:07.110Z,22.10
2022-12-15T03:55:35.826Z,22.50
2022-12-15T03:58:04.183Z,23.10
2022-12-15T04:00:33.070Z,22.50
2022-12-15T04:03:01.694Z,22.40
2022-12-15T04:05:32.903Z,22.10
2022-12-15T04:08:02.076Z,23.60
2022-12-15T04:10:34.662Z,22.80
2022-12-15T04:13:05.844Z,22.40
2022-12-15T04:15:34.715Z,22.90
2022-12-15T04:18:05.045Z,23.40
2022-12-15T04:20:33.837Z,23.30
2022-12-15T04:23:02.215Z,23.40
2022-12-15T04:25:48.621Z,22.80
2022-12-15T04:28:35.233Z,22.60
2022-12-15T04:31:26.272Z,22.60
2022-12-15T04:34:16.431Z,25.90
2022-12-15T04:37:04.947Z,25.20
2022-12-15T04:39:53.735Z,23.00
2022-12-15T04:42:40.782Z,23.10
2022-12-15T04:45:30.743Z,22.10
2022-12-15T04:48:18.377Z,21.00
2022-12-15T04:51:05.187Z,21.70
2022-12-15T04:53:52.202Z,23.40
2022-12-15T04:56:38.816Z,23.30
2022-12-15T04:59:25.488Z,22.30
2022-12-15T05:02:12.329Z,22.50
2022-12-15T05:04:59.403Z,23.60
2022-12-15T05:07:45.958Z,22.00
2022-12-15T05:10:32.469Z,23.30
2022-12-15T05:13:24.107Z,23.00
2022-12-15T05:16:10.932Z,22.30
2022-12-15T05:18:57.720Z,23.60
2022-12-15T05:21:44.334Z,21.30
2022-12-15T05:24:31.137Z,24.30
2022-12-15T05:27:17.744Z,25.80
2022-12-15T05:30:04.406Z,26.60
2022-12-15T05:32:33.397Z,26.90
2022-12-15T05:35:01.940Z,24.50
2022-12-15T05:37:30.431Z,23.40
2022-12-15T05:39:58.901Z,25.70
2022-12-15T05:42:27.148Z,24.70
2022-12-15T05:44:55.569Z,25.20
2022-12-15T05:47:24.036Z,25.30
2022-12-15T05:49:52.420Z,22.50
2022-12-15T05:52:20.765Z,24.40
2022-12-15T05:54:49.191Z,24.40
2022-12-15T05:57:17.624Z,24.10
2022-12-15T05:59:46.043Z,24.90
2022-12-15T06:02:14.492Z,24.10
2022-12-15T06:04:43.068Z,24.30
2022-12-15T06:07:11.594Z,23.70
2022-12-15T06:09:39.977Z,25.10
2022-12-15T06:12:08.475Z,25.80
2022-12-15T06:14:37.313Z,25.90
2022-12-15T06:17:05.729Z,27.80
2022-12-15T06:19:34.331Z,25.90
2022-12-15T06:22:02.797Z,27.20
2022-12-15T06:24:31.173Z,26.20
2022-12-15T06:26:59.721Z,26.70
2022-12-15T06:29:28.274Z,27.00
2022-12-15T06:31:56.754Z,28.50
2022-12-15T06:34:26.028Z,27.20
2022-12-15T06:36:54.357Z,27.80
2022-12-15T06:39:22.994Z,29.30
2022-12-15T06:41:51.369Z,28.80
2022-12-15T06:44:20.054Z,29.30
2022-12-15T06:46:48.465Z,28.10
2022-12-15T06:49:17.024Z,27.60
2022-12-15T06:51:45.351Z,28.80
2022-12-15T06:54:13.892Z,28.50
2022-12-15T06:56:42.278Z,28.50
2022-12-15T06:59:12.288Z,28.00
2022-12-15T07:01:41.518Z,27.90
2022-12-15T07:04:10.695Z,26.60
2022-12-15T07:06:40.030Z,27.80
2022-12-15T07:09:12.712Z,26.40
2022-12-15T07:11:41.067Z,27.90
2022-12-15T07:14:10.378Z,30.70
2022-12-15T07:16:39.121Z,28.00
2022-12-15T07:19:10.999Z,27.80
2022-12-15T07:21:40.473Z,30.30
2022-12-15T07:24:11.669Z,28.70
2022-12-15T07:26:40.074Z,32.30
2022-12-15T07:29:09.652Z,31.20
2022-12-15T07:31:38.197Z,32.90
2022-12-15T07:34:06.810Z,29.50
2022-12-15T07:36:35.298Z,30.40
2022-12-15T07:39:05.162Z,32.20
2022-12-15T07:41:33.760Z,29.40
2022-12-15T07:44:02.299Z,30.80
2022-12-15T07:46:30.761Z,28.30
2022-12-15T07:48:59.247Z,29.80
2022-12-15T07:51:31.479Z,29.10
2022-12-15T07:54:00.333Z,29.40
2022-12-15T07:56:28.681Z,30.00
2022-12-15T07:58:57.177Z,29.80
2022-12-15T08:01:25.860Z,30.70
2022-12-15T08:03:54.380Z,32.20
2022-12-15T08:06:24.259Z,28.50
2022-12-15T08:08:53.561Z,29.10
2022-12-15T08:11:23.982Z,27.60
2022-12-15T08:14:13.260Z,27.90
2022-12-15T08:16:41.503Z,29.80
2022-12-15T08:19:13.297Z,29.90
2022-12-15T08:21:43.598Z,29.60
2022-12-15T08:24:13.470Z,28.80
2022-12-15T08:26:42.943Z,30.50
2022-12-15T08:32:02.121Z,29.10
2022-12-15T08:34:31.025Z,32.00
2022-12-15T08:36:59.403Z,28.50
2022-12-15T08:39:27.881Z,28.50
2022-12-15T08:41:56.593Z,29.60
2022-12-15T08:44:25.259Z,29.10
2022-12-15T08:46:53.626Z,26.80
2022-12-15T08:49:22.630Z,28.50
2022-12-15T08:51:51.444Z,28.60
2022-12-15T08:54:20.769Z,27.00
2022-12-15T08:56:49.813Z,28.10
2022-12-15T08:59:18.893Z,27.80
2022-12-15T09:01:47.318Z,27.90
2022-12-15T09:04:16.163Z,28.10
2022-12-15T09:06:46.762Z,31.10
2022-12-15T09:09:21.361Z,30.80
2022-12-15T09:11:50.136Z,30.60
2022-12-15T09:14:22.778Z,32.10
2022-12-15T09:16:55.772Z,35.30
2022-12-15T09:19:24.801Z,35.10
2022-12-15T09:21:53.284Z,34.50
2022-12-15T09:24:32.214Z,35.60
2022-12-15T09:27:03.571Z,35.50
2022-12-15T09:29:32.246Z,33.20
2022-12-15T09:32:01.066Z,34.20
2022-12-15T09:34:29.833Z,35.60
2022-12-15T09:36:58.424Z,33.20
2022-12-15T09:39:27.413Z,33.50
2022-12-15T09:41:58.660Z,33.60
2022-12-15T09:44:29.807Z,34.60
2022-12-15T09:47:15.368Z,34.10
2022-12-15T09:52:27.306Z,26.20
2022-12-15T09:54:56.111Z,22.80
2022-12-15T09:57:35.939Z,29.30
2022-12-15T10:00:21.281Z,28.90
2022-12-15T10:03:11.861Z,29.60
2022-12-15T10:08:45.729Z,26.40
2022-12-15T10:11:24.387Z,25.10
2022-12-15T10:13:57.746Z,26.60
2022-12-15T10:16:32.924Z,29.00
2022-12-15T10:21:36.236Z,23.40
2022-12-15T10:24:26.629Z,28.50
2022-12-15T10:27:17.644Z,28.30
2022-12-15T10:29:51.119Z,22.50
2022-12-15T10:32:26.106Z,23.10
2022-12-15T10:34:54.647Z,24.00
2022-12-15T10:37:23.741Z,27.10
2022-12-15T10:39:52.233Z,28.30
2022-12-15T10:42:22.868Z,28.60
2022-12-15T10:44:53.496Z,31.90
2022-12-15T10:47:26.255Z,29.90
2022-12-15T10:50:19.458Z,31.30
2022-12-15T10:52:51.458Z,27.10
2022-12-15T10:55:36.057Z,28.30
2022-12-15T10:58:15.977Z,28.30
2022-12-15T11:00:45.934Z,29.10
2022-12-15T11:03:25.746Z,30.50
2022-12-15T11:05:56.603Z,25.00
2022-12-15T11:08:26.844Z,26.70
2022-12-15T11:11:15.527Z,26.90
2022-12-15T11:14:05.114Z,30.40
2022-12-15T11:16:33.558Z,27.20
2022-12-15T11:19:09.903Z,28.10
2022-12-15T11:21:43.957Z,30.40
2022-12-15T11:24:18.276Z,27.10
2022-12-15T11:26:54.833Z,29.10
2022-12-15T11:29:33.963Z,27.50
2022-12-15T11:32:06.959Z,29.40
2022-12-15T11:34:38.921Z,28.60
2022-12-15T11:37:19.908Z,29.70
2022-12-15T11:40:04.056Z,28.50
2022-12-15T11:42:44.711Z,26.90
2022-12-15T11:45:22.628Z,23.90
2022-12-15T11:47:57.345Z,24.00
2022-12-15T11:50:32.495Z,25.60
2022-12-15T11:55:45.321Z,25.60
2022-12-15T11:58:36.318Z,27.40
2022-12-15T12:01:12.808Z,27.80
2022-12-15T12:03:55.771Z,28.30
2022-12-15T12:06:34.780Z,27.00
2022-12-15T12:09:24.145Z,27.30
2022-12-15T12:11:57.371Z,27.40
2022-12-15T12:14:39.528Z,28.40
2022-12-15T12:17:13.574Z,27.50
2022-12-15T12:19:50.829Z,27.90
2022-12-15T12:22:25.145Z,29.10
2022-12-15T12:24:59.773Z,29.50
2022-12-15T12:27:37.164Z,30.10
2022-12-15T12:30:12.201Z,30.30
2022-12-15T12:35:44.500Z,31.20
2022-12-15T12:38:14.008Z,32.90
2022-12-15T12:40:59.455Z,30.90
2022-12-15T12:43:36.757Z,29.00
2022-12-15T12:46:14.166Z,28.40
2022-12-15T12:48:48.892Z,33.10
2022-12-15T12:51:27.826Z,31.80
2022-12-15T12:53:57.017Z,31.10
2022-12-15T12:56:38.612Z,32.10
2022-12-15T12:59:36.288Z,33.50
2022-12-15T13:02:38.605Z,29.60
2022-12-15T13:05:33.455Z,30.00
2022-12-15T13:08:33.907Z,31.30
2022-12-15T13:11:40.686Z,29.70
2022-12-15T13:14:22.531Z,30.00
2022-12-15T13:20:25.276Z,31.70
2022-12-15T13:22:54.742Z,31.70
2022-12-15T13:25:41.498Z,33.50
2022-12-15T13:28:29.991Z,35.00
2022-12-15T13:31:24.543Z,32.20
2022-12-15T13:34:00.908Z,30.70
2022-12-15T13:36:54.430Z,32.50
2022-12-15T13:39:57.640Z,30.50
2022-12-15T13:42:51.210Z,32.00
2022-12-15T13:45:37.682Z,28.00
2022-12-15T13:48:18.003Z,28.80
2022-12-15T13:50:53.368Z,27.60
2022-12-15T13:53:25.381Z,27.70
2022-12-15T13:56:19.093Z,26.50
2022-12-15T13:58:56.850Z,26.30
2022-12-15T14:01:32.579Z,26.20
2022-12-15T14:04:07.323Z,24.70
2022-12-15T14:06:40.571Z,24.30
2022-12-15T14:09:14.740Z,24.20
2022-12-15T14:11:54.005Z,26.70
2022-12-15T14:14:25.319Z,25.70
2022-12-15T14:16:59.837Z,25.20
2022-12-15T14:19:38.857Z,22.40
2022-12-15T14:22:27.486Z,25.90
2022-12-15T14:25:02.224Z,27.80
2022-12-15T14:27:32.673Z,27.60
2022-12-15T14:30:21.823Z,25.90
2022-12-15T14:32:56.527Z,30.10
2022-12-15T14:35:31.094Z,29.70
2022-12-15T14:38:03.571Z,33.20
2022-12-15T14:40:35.498Z,30.10
2022-12-15T14:43:04.822Z,34.30
2022-12-15T14:45:33.751Z,31.60
2022-12-15T14:51:01.093Z,27.40
2022-12-15T14:53:33.745Z,28.40
2022-12-15T14:56:27.654Z,31.40
2022-12-15T14:59:20.901Z,26.50
2022-12-15T15:01:59.467Z,28.80
2022-12-15T15:03:04.934Z,27.90
2022-12-15T15:03:09.844Z,30.80
2022-12-15T15:04:31.963Z,29.30
2022-12-15T15:07:02.649Z,28.00
2022-12-15T15:09:33.826Z,31.90
2022-12-15T15:12:05.038Z,29.30
2022-12-15T15:14:38.637Z,28.50
2022-12-15T15:17:16.446Z,33.10
2022-12-15T15:19:50.601Z,23.10
2022-12-15T15:22:34.700Z,29.60
2022-12-15T15:25:19.303Z,29.20
2022-12-15T15:27:49.570Z,29.60
2022-12-15T15:30:21.425Z,26.50
2022-12-15T15:32:55.540Z,28.10
2022-12-15T15:35:29.759Z,23.80
2022-12-15T15:38:02.547Z,21.30
2022-12-15T15:40:31.016Z,28.30
2022-12-15T15:43:00.324Z,26.30
2022-12-15T15:45:28.917Z,26.20
2022-12-15T15:47:57.398Z,23.90
2022-12-15T15:50:29.571Z,24.60
2022-12-15T15:52:58.467Z,25.60
2022-12-15T15:55:33.706Z,25.00
2022-12-15T15:58:12.215Z,24.10
2022-12-15T16:00:41.107Z,24.90
2022-12-15T16:03:10.427Z,23.50
2022-12-15T16:05:39.610Z,28.10
2022-12-15T16:08:13.111Z,27.00
2022-12-15T16:10:43.029Z,28.30
2022-12-15T16:13:12.434Z,25.00
2022-12-15T16:15:41.335Z,25.00
2022-12-15T16:18:09.842Z,23.90
2022-12-15T16:20:39.517Z,26.50
2022-12-15T16:23:14.596Z,24.00
2022-12-15T16:25:50.554Z,26.10
2022-12-15T16:28:20.875Z,27.70
2022-12-15T16:30:50.235Z,28.10
2022-12-15T16:33:19.032Z,25.20
2022-12-15T16:35:49.561Z,26.60
2022-12-15T16:38:22.962Z,24.50
2022-12-15T16:40:51.890Z,24.70
2022-12-15T16:43:23.630Z,26.50
2022-12-15T16:45:53.353Z,24.60
2022-12-15T16:48:22.011Z,25.10
2022-12-15T16:50:52.600Z,28.10
2022-12-15T16:53:25.655Z,27.20
2022-12-15T16:55:56.470Z,26.30
2022-12-15T16:58:25.804Z,25.70
2022-12-15T17:00:54.248Z,26.40
2022-12-15T17:03:25.081Z,27.60
2022-12-15T17:05:55.623Z,27.60
2022-12-15T17:08:25.953Z,27.50
2022-12-15T17:10:54.824Z,27.40
2022-12-15T17:13:34.330Z,25.00
2022-12-15T17:16:10.619Z,26.60
2022-12-15T17:18:39.492Z,23.80
2022-12-15T17:21:14.782Z,27.00
2022-12-15T17:26:27.579Z,25.60
2022-12-15T17:28:58.464Z,25.70
2022-12-15T17:31:33.280Z,26.40
2022-12-15T17:34:21.843Z,27.40
2022-12-15T17:36:50.182Z,27.80
2022-12-15T17:39:20.035Z,28.10
2022-12-15T17:41:59.848Z,27.50
2022-12-15T17:44:33.493Z,27.60
2022-12-15T17:47:05.599Z,26.40
2022-12-15T17:49:36.918Z,30.70
2022-12-15T17:52:26.259Z,30.30
2022-12-15T17:54:55.687Z,28.20
2022-12-15T17:57:24.890Z,31.50
2022-12-15T18:00:21.570Z,30.60
2022-12-15T18:02:50.085Z,30.40
2022-12-15T18:05:19.522Z,31.40
2022-12-15T18:07:52.773Z,31.30
2022-12-15T18:10:29.386Z,32.10
2022-12-15T18:12:58.791Z,30.90
2022-12-15T18:15:30.657Z,28.10
2022-12-15T18:18:00.678Z,31.70
2022-12-15T18:20:29.307Z,31.50
2022-12-15T18:22:57.940Z,30.00
2022-12-15T18:25:28.063Z,29.90
2022-12-15T18:27:59.364Z,28.50
2022-12-15T18:30:28.929Z,29.20
2022-12-15T18:32:59.388Z,29.20
2022-12-15T18:35:34.312Z,30.50
2022-12-15T18:38:02.661Z,30.20
2022-12-15T18:40:31.097Z,33.10
2022-12-15T18:42:59.646Z,31.00
2022-12-15T18:45:29.540Z,32.40
2022-12-15T18:47:57.818Z,32.80
2022-12-15T18:50:26.685Z,33.40
2022-12-15T18:52:59.391Z,31.80
2022-12-15T18:55:30.954Z,30.90
2022-12-15T18:58:01.145Z,27.90
2022-12-15T19:00:31.748Z,29.80
2022-12-15T19:03:00.308Z,30.10
2022-12-15T19:05:31.786Z,30.80
2022-12-15T19:08:04.261Z,33.30
2022-12-15T19:10:34.271Z,32.60
2022-12-15T19:13:02.689Z,31.30
2022-12-15T19:15:31.180Z,29.90
2022-12-15T19:18:17.702Z,33.40
2022-12-15T19:21:04.382Z,31.00
2022-12-15T19:23:33.071Z,27.20
2022-12-15T19:26:01.932Z,29.00
2022-12-15T19:28:30.338Z,31.60
2022-12-15T19:30:58.934Z,30.30
2022-12-15T19:33:27.328Z,30.40
2022-12-15T19:35:57.052Z,27.70
2022-12-15T19:38:28.531Z,30.30
2022-12-15T19:40:57.674Z,29.50
2022-12-15T19:43:26.953Z,28.40
2022-12-15T19:45:55.446Z,29.40
2022-12-15T19:48:24.533Z,30.10
2022-12-15T19:50:54.865Z,29.50
2022-12-15T19:53:25.769Z,30.30
2022-12-15T19:55:57.100Z,28.30
2022-12-15T19:58:28.902Z,28.80
2022-12-15T20:00:59.424Z,27.90
2022-12-15T20:03:31.565Z,29.00
2022-12-15T20:06:02.818Z,28.50
2022-12-15T20:08:35.593Z,25.40
2022-12-15T20:11:04.682Z,28.70
2022-12-15T20:13:33.377Z,29.00
2022-12-15T20:16:02.416Z,26.20
2022-12-15T20:18:31.229Z,29.90
2022-12-15T20:21:00.869Z,27.90
2022-12-15T20:23:31.333Z,28.00
2022-12-15T20:26:00.463Z,25.10
2022-12-15T20:28:30.111Z,21.80
2022-12-15T20:30:58.796Z,26.30
2022-12-15T20:33:27.899Z,28.50
2022-12-15T20:35:56.342Z,28.00
2022-12-15T20:38:31.321Z,29.00
2022-12-15T20:41:01.123Z,26.40
2022-12-15T20:43:33.279Z,28.60
2022-12-15T20:46:05.711Z,27.20
2022-12-15T20:48:36.000Z,28.60
2022-12-15T20:51:09.199Z,28.00
2022-12-15T20:53:38.705Z,28.10
2022-12-15T20:56:08.043Z,28.90
2022-12-15T20:58:39.385Z,27.70
2022-12-15T21:01:18.675Z,25.50
2022-12-15T21:03:49.445Z,27.00
2022-12-15T21:06:20.705Z,26.90
2022-12-15T21:08:49.290Z,24.40
2022-12-15T21:11:20.822Z,24.00
2022-12-15T21:13:50.652Z,28.20
2022-12-15T21:16:21.021Z,28.00
2022-12-15T21:21:40.532Z,25.10
2022-12-15T21:24:16.178Z,28.00
2022-12-15T21:26:45.492Z,28.10
2022-12-15T21:29:23.934Z,29.30
2022-12-15T21:31:53.111Z,33.50
2022-12-15T21:34:21.710Z,32.30
2022-12-15T21:36:54.734Z,30.10
2022-12-15T21:39:28.897Z,29.60
2022-12-15T21:41:59.530Z,29.10
2022-12-15T21:44:29.562Z,31.60
2022-12-15T21:46:58.686Z,27.40
2022-12-15T21:49:27.439Z,29.70
2022-12-15T21:52:00.733Z,27.20
2022-12-15T21:54:34.966Z,29.50
2022-12-15T21:57:03.553Z,28.00
2022-12-15T21:59:33.110Z,28.00
2022-12-15T22:02:14.090Z,28.70
2022-12-15T22:04:42.888Z,25.90
2022-12-15T22:07:15.804Z,24.20
2022-12-15T22:09:45.812Z,26.10
2022-12-15T22:12:20.460Z,26.80
2022-12-15T22:14:49.440Z,24.90
2022-12-15T22:17:20.289Z,21.60
2022-12-15T22:19:48.843Z,32.30
2022-12-15T22:22:17.630Z,35.60
2022-12-15T22:24:46.025Z,23.60
2022-12-15T22:27:19.623Z,27.40
2022-12-15T22:29:48.831Z,28.00
2022-12-15T22:32:17.830Z,26.30
2022-12-15T22:34:46.513Z,28.00
2022-12-15T22:37:15.293Z,21.60
2022-12-15T22:39:43.781Z,27.10
2022-12-15T22:42:16.818Z,26.60
2022-12-15T22:44:45.974Z,25.40
2022-12-15T22:47:14.343Z,27.80
2022-12-15T22:49:43.355Z,28.90
2022-12-15T22:52:17.200Z,30.90
2022-12-15T22:54:46.246Z,29.40
2022-12-15T22:57:23.341Z,29.60
2022-12-15T22:59:59.913Z,30.60
2022-12-15T23:02:31.262Z,29.10
2022-12-15T23:05:01.482Z,25.80
2022-12-15T23:07:29.969Z,28.00
2022-12-15T23:10:12.812Z,29.00
2022-12-15T23:12:41.537Z,28.50
2022-12-15T23:15:29.802Z,30.00
2022-12-15T23:17:58.177Z,31.10
2022-12-15T23:20:26.889Z,27.30
2022-12-15T23:22:55.371Z,29.60
2022-12-15T23:25:24.159Z,27.50
2022-12-15T23:27:52.643Z,32.70
2022-12-15T23:30:21.286Z,29.60
2022-12-15T23:32:49.654Z,31.20
2022-12-15T23:35:18.229Z,30.20
2022-12-15T23:37:46.571Z,32.10
2022-12-15T23:40:20.684Z,32.80
2022-12-15T23:42:50.202Z,31.20
2022-12-15T23:45:19.468Z,28.40
2022-12-15T23:47:47.933Z,31.20
2022-12-15T23:50:17.797Z,28.70
2022-12-15T23:52:50.282Z,26.20
2022-12-15T23:55:20.407Z,30.50
2022-12-15T23:57:48.972Z,27.00
